sensor_id;sensor_type;location;lat;lon;timestamp;temperature;humidity
18882;DHT22;9573;50.948;11.600;2023-05-14T00:00:14;13.70;99.90
18882;DHT22;9573;50.948;11.600;2023-05-14T00:02:41;13.70;99.90
18882;DHT22;9573;50.948;11.600;2023-05-14T00:05:08;13.60;99.90
18882;DHT22;9573;50.948;11.600;2023-05-14T00:07:36;13.60;99.90
18882;DHT22;9573;50.948;11.600;2023-05-14T00:10:03;13.50;99.90
18882;DHT22;9573;50.948;11.600;2023-05-14T00:12:32;13.40;99.90
18882;DHT22;9573;50.948;11.600;2023-05-14T00:15:00;13.30;99.90
18882;DHT22;9573;50.948;11.600;2023-05-14T00:17:27;13.20;99.90
18882;DHT22;9573;50.948;11.600;2023-05-14T00:19:55;13.10;99.90
18882;DHT22;9573;50.948;11.600;2023-05-14T00:22:24;13.00;99.90
18882;DHT22;9573;50.948;11.600;2023-05-14T00:24:51;12.90;99.90
18882;DHT22;9573;50.948;11.600;2023-05-14T00:27:18;12.80;99.90
18882;DHT22;9573;50.948;11.600;2023-05-14T00:29:46;12.70;99.90
18882;DHT22;9573;50.948;11.600;2023-05-14T00:32:13;12.60;99.90
18882;DHT22;9573;50.948;11.600;2023-05-14T00:34:40;12.50;99.90
18882;DHT22;9573;50.948;11.600;2023-05-14T00:37:07;12.50;99.90
18882;DHT22;9573;50.948;11.600;2023-05-14T00:39:34;12.40;99.90
18882;DHT22;9573;50.948;11.600;2023-05-14T00:42:01;12.30;99.90
18882;DHT22;9573;50.948;11.600;2023-05-14T00:44:29;12.20;99.90
18882;DHT22;9573;50.948;11.600;2023-05-14T00:46:57;12.20;99.90
18882;DHT22;9573;50.948;11.600;2023-05-14T00:49:24;12.10;99.90
18882;DHT22;9573;50.948;11.600;2023-05-14T00:51:53;12.00;99.90
18882;DHT22;9573;50.948;11.600;2023-05-14T00:54:20;12.00;99.90
18882;DHT22;9573;50.948;11.600;2023-05-14T00:56:47;11.90;99.90
18882;DHT22;9573;50.948;11.600;2023-05-14T00:59:14;11.90;99.90
18882;DHT22;9573;50.948;11.600;2023-05-14T01:01:42;11.80;99.90
18882;DHT22;9573;50.948;11.600;2023-05-14T01:04:10;11.80;99.90
18882;DHT22;9573;50.948;11.600;2023-05-14T01:06:47;11.80;99.90
18882;DHT22;9573;50.948;11.600;2023-05-14T01:09:25;11.70;99.90
18882;DHT22;9573;50.948;11.600;2023-05-14T01:12:01;11.60;99.90
18882;DHT22;9573;50.948;11.600;2023-05-14T01:14:40;11.60;99.90
18882;DHT22;9573;50.948;11.600;2023-05-14T01:17:10;11.50;99.90
18882;DHT22;9573;50.948;11.600;2023-05-14T01:19:41;11.50;99.90
18882;DHT22;9573;50.948;11.600;2023-05-14T01:22:11;11.50;99.90
18882;DHT22;9573;50.948;11.600;2023-05-14T01:24:38;11.50;99.90
18882;DHT22;9573;50.948;11.600;2023-05-14T01:27:08;11.50;99.90
18882;DHT22;9573;50.948;11.600;2023-05-14T01:29:39;11.40;99.90
18882;DHT22;9573;50.948;11.600;2023-05-14T01:32:09;11.50;99.90
18882;DHT22;9573;50.948;11.600;2023-05-14T01:34:39;11.40;99.90
18882;DHT22;9573;50.948;11.600;2023-05-14T01:37:07;11.40;99.90
18882;DHT22;9573;50.948;11.600;2023-05-14T01:39:38;11.40;99.90
18882;DHT22;9573;50.948;11.600;2023-05-14T01:42:06;11.30;99.90
18882;DHT22;9573;50.948;11.600;2023-05-14T01:44:33;11.30;99.90
18882;DHT22;9573;50.948;11.600;2023-05-14T01:47:01;11.30;99.90
18882;DHT22;9573;50.948;11.600;2023-05-14T01:49:28;11.30;99.90
18882;DHT22;9573;50.948;11.600;2023-05-14T01:51:55;11.20;99.90
18882;DHT22;9573;50.948;11.600;2023-05-14T01:54:23;11.10;99.90
18882;DHT22;9573;50.948;11.600;2023-05-14T01:56:50;11.10;99.90
18882;DHT22;9573;50.948;11.600;2023-05-14T01:59:17;11.00;99.90
18882;DHT22;9573;50.948;11.600;2023-05-14T02:01:45;11.00;99.90
18882;DHT22;9573;50.948;11.600;2023-05-14T02:04:12;10.90;99.90
18882;DHT22;9573;50.948;11.600;2023-05-14T02:06:39;10.90;99.90
18882;DHT22;9573;50.948;11.600;2023-05-14T02:09:06;10.90;99.90
18882;DHT22;9573;50.948;11.600;2023-05-14T02:11:34;10.90;99.90
18882;DHT22;9573;50.948;11.600;2023-05-14T02:14:01;10.80;99.90
18882;DHT22;9573;50.948;11.600;2023-05-14T02:16:29;10.80;99.90
18882;DHT22;9573;50.948;11.600;2023-05-14T02:18:56;10.80;99.90
18882;DHT22;9573;50.948;11.600;2023-05-14T02:21:23;10.80;99.90
18882;DHT22;9573;50.948;11.600;2023-05-14T02:23:50;10.80;99.90
18882;DHT22;9573;50.948;11.600;2023-05-14T02:26:17;10.80;99.90
18882;DHT22;9573;50.948;11.600;2023-05-14T02:28:46;10.70;99.90
18882;DHT22;9573;50.948;11.600;2023-05-14T02:31:13;10.70;99.90
18882;DHT22;9573;50.948;11.600;2023-05-14T02:33:42;10.70;99.90
18882;DHT22;9573;50.948;11.600;2023-05-14T02:36:09;10.70;99.90
18882;DHT22;9573;50.948;11.600;2023-05-14T02:38:36;10.80;99.90
18882;DHT22;9573;50.948;11.600;2023-05-14T02:41:03;10.80;99.90
18882;DHT22;9573;50.948;11.600;2023-05-14T02:43:30;10.80;99.90
18882;DHT22;9573;50.948;11.600;2023-05-14T02:45:58;10.90;99.90
18882;DHT22;9573;50.948;11.600;2023-05-14T02:48:25;10.90;99.90
18882;DHT22;9573;50.948;11.600;2023-05-14T02:50:52;11.00;99.90
18882;DHT22;9573;50.948;11.600;2023-05-14T02:53:19;11.00;99.90
18882;DHT22;9573;50.948;11.600;2023-05-14T02:55:46;11.10;99.90
18882;DHT22;9573;50.948;11.600;2023-05-14T02:58:14;11.10;99.90
18882;DHT22;9573;50.948;11.600;2023-05-14T03:00:41;11.10;99.90
18882;DHT22;9573;50.948;11.600;2023-05-14T03:03:09;11.00;99.90
18882;DHT22;9573;50.948;11.600;2023-05-14T03:05:36;10.90;99.90
18882;DHT22;9573;50.948;11.600;2023-05-14T03:08:03;10.90;99.90
18882;DHT22;9573;50.948;11.600;2023-05-14T03:10:31;10.90;99.90
18882;DHT22;9573;50.948;11.600;2023-05-14T03:12:58;10.80;99.90
18882;DHT22;9573;50.948;11.600;2023-05-14T03:15:25;10.90;99.90
18882;DHT22;9573;50.948;11.600;2023-05-14T03:17:52;10.90;99.90
18882;DHT22;9573;50.948;11.600;2023-05-14T03:20:22;10.90;99.90
18882;DHT22;9573;50.948;11.600;2023-05-14T03:22:50;11.00;99.90
18882;DHT22;9573;50.948;11.600;2023-05-14T03:25:17;11.00;99.90
18882;DHT22;9573;50.948;11.600;2023-05-14T03:27:44;11.10;99.90
18882;DHT22;9573;50.948;11.600;2023-05-14T03:30:12;11.20;99.90
18882;DHT22;9573;50.948;11.600;2023-05-14T03:32:39;11.20;99.90
18882;DHT22;9573;50.948;11.600;2023-05-14T03:35:07;11.20;99.90
18882;DHT22;9573;50.948;11.600;2023-05-14T03:37:36;11.30;99.90
18882;DHT22;9573;50.948;11.600;2023-05-14T03:40:04;11.40;99.90
18882;DHT22;9573;50.948;11.600;2023-05-14T03:42:32;11.40;99.90
18882;DHT22;9573;50.948;11.600;2023-05-14T03:44:59;11.50;99.90
18882;DHT22;9573;50.948;11.600;2023-05-14T03:47:27;11.50;99.90
18882;DHT22;9573;50.948;11.600;2023-05-14T03:49:54;11.60;99.90
18882;DHT22;9573;50.948;11.600;2023-05-14T03:52:21;11.70;99.90
18882;DHT22;9573;50.948;11.600;2023-05-14T03:54:49;11.80;99.90
18882;DHT22;9573;50.948;11.600;2023-05-14T03:57:16;11.90;99.90
18882;DHT22;9573;50.948;11.600;2023-05-14T03:59:43;12.10;99.90
18882;DHT22;9573;50.948;11.600;2023-05-14T04:02:11;12.20;99.90
18882;DHT22;9573;50.948;11.600;2023-05-14T04:04:38;12.20;99.90
18882;DHT22;9573;50.948;11.600;2023-05-14T04:07:05;12.30;99.90
18882;DHT22;9573;50.948;11.600;2023-05-14T04:09:33;12.40;99.90
18882;DHT22;9573;50.948;11.600;2023-05-14T04:12:01;12.50;99.90
18882;DHT22;9573;50.948;11.600;2023-05-14T04:14:29;12.60;99.90
18882;DHT22;9573;50.948;11.600;2023-05-14T04:16:56;12.60;99.90
18882;DHT22;9573;50.948;11.600;2023-05-14T04:19:23;12.60;99.90
18882;DHT22;9573;50.948;11.600;2023-05-14T04:21:50;12.60;99.90
18882;DHT22;9573;50.948;11.600;2023-05-14T04:24:17;12.70;99.90
18882;DHT22;9573;50.948;11.600;2023-05-14T04:26:44;12.70;99.90
18882;DHT22;9573;50.948;11.600;2023-05-14T04:29:13;12.70;99.90
18882;DHT22;9573;50.948;11.600;2023-05-14T04:31:40;12.80;99.90
18882;DHT22;9573;50.948;11.600;2023-05-14T04:34:07;12.90;99.90
18882;DHT22;9573;50.948;11.600;2023-05-14T04:36:34;13.20;99.90
18882;DHT22;9573;50.948;11.600;2023-05-14T04:39:01;13.50;99.90
18882;DHT22;9573;50.948;11.600;2023-05-14T04:41:30;14.00;99.90
18882;DHT22;9573;50.948;11.600;2023-05-14T04:43:59;14.60;99.90
18882;DHT22;9573;50.948;11.600;2023-05-14T04:46:27;15.50;99.90
18882;DHT22;9573;50.948;11.600;2023-05-14T04:48:55;15.90;99.90
18882;DHT22;9573;50.948;11.600;2023-05-14T04:51:22;17.10;99.90
18882;DHT22;9573;50.948;11.600;2023-05-14T04:53:49;19.50;99.90
18882;DHT22;9573;50.948;11.600;2023-05-14T04:56:16;21.80;99.90
18882;DHT22;9573;50.948;11.600;2023-05-14T04:58:43;23.30;99.90
18882;DHT22;9573;50.948;11.600;2023-05-14T05:01:10;24.30;99.90
18882;DHT22;9573;50.948;11.600;2023-05-14T05:03:39;24.70;99.90
18882;DHT22;9573;50.948;11.600;2023-05-14T05:06:06;23.40;99.90
18882;DHT22;9573;50.948;11.600;2023-05-14T05:08:33;22.20;99.90
18882;DHT22;9573;50.948;11.600;2023-05-14T05:11:02;21.50;99.90
18882;DHT22;9573;50.948;11.600;2023-05-14T05:13:29;23.30;99.90
18882;DHT22;9573;50.948;11.600;2023-05-14T05:15:56;25.00;99.90
18882;DHT22;9573;50.948;11.600;2023-05-14T05:18:23;25.70;99.40
18882;DHT22;9573;50.948;11.600;2023-05-14T05:20:52;24.10;99.90
18882;DHT22;9573;50.948;11.600;2023-05-14T05:23:19;22.20;99.90
18882;DHT22;9573;50.948;11.600;2023-05-14T05:25:46;20.70;99.90
18882;DHT22;9573;50.948;11.600;2023-05-14T05:28:15;19.70;99.90
18882;DHT22;9573;50.948;11.600;2023-05-14T05:30:42;18.80;99.90
18882;DHT22;9573;50.948;11.600;2023-05-14T05:33:10;18.10;99.90
18882;DHT22;9573;50.948;11.600;2023-05-14T05:35:38;17.50;99.90
18882;DHT22;9573;50.948;11.600;2023-05-14T05:38:06;17.20;99.90
18882;DHT22;9573;50.948;11.600;2023-05-14T05:40:33;16.90;99.90
18882;DHT22;9573;50.948;11.600;2023-05-14T05:43:00;16.90;99.90
18882;DHT22;9573;50.948;11.600;2023-05-14T05:45:27;16.90;99.90
18882;DHT22;9573;50.948;11.600;2023-05-14T05:47:55;17.00;99.90
18882;DHT22;9573;50.948;11.600;2023-05-14T05:50:23;17.00;99.90
18882;DHT22;9573;50.948;11.600;2023-05-14T05:52:50;17.00;99.90
18882;DHT22;9573;50.948;11.600;2023-05-14T05:55:22;17.00;99.90
18882;DHT22;9573;50.948;11.600;2023-05-14T05:57:49;17.00;99.90
18882;DHT22;9573;50.948;11.600;2023-05-14T06:00:19;17.00;99.90
18882;DHT22;9573;50.948;11.600;2023-05-14T06:02:48;17.10;99.90
18882;DHT22;9573;50.948;11.600;2023-05-14T06:05:16;17.40;99.90
18882;DHT22;9573;50.948;11.600;2023-05-14T06:07:44;17.70;99.90
18882;DHT22;9573;50.948;11.600;2023-05-14T06:10:12;18.10;99.90
18882;DHT22;9573;50.948;11.600;2023-05-14T06:12:41;19.10;99.90
18882;DHT22;9573;50.948;11.600;2023-05-14T06:15:09;20.90;99.90
18882;DHT22;9573;50.948;11.600;2023-05-14T06:17:38;22.20;99.90
18882;DHT22;9573;50.948;11.600;2023-05-14T06:20:10;21.80;99.90
18882;DHT22;9573;50.948;11.600;2023-05-14T06:22:37;21.00;99.90
18882;DHT22;9573;50.948;11.600;2023-05-14T06:25:06;20.40;99.90
18882;DHT22;9573;50.948;11.600;2023-05-14T06:27:34;19.80;99.90
18882;DHT22;9573;50.948;11.600;2023-05-14T06:30:04;19.60;99.90
18882;DHT22;9573;50.948;11.600;2023-05-14T06:32:33;19.50;99.90
18882;DHT22;9573;50.948;11.600;2023-05-14T06:35:03;19.50;99.90
18882;DHT22;9573;50.948;11.600;2023-05-14T06:37:34;19.80;99.90
18882;DHT22;9573;50.948;11.600;2023-05-14T06:40:02;20.40;99.90
18882;DHT22;9573;50.948;11.600;2023-05-14T06:42:29;21.00;99.90
18882;DHT22;9573;50.948;11.600;2023-05-14T06:44:57;21.30;99.90
18882;DHT22;9573;50.948;11.600;2023-05-14T06:47:27;21.60;99.90
18882;DHT22;9573;50.948;11.600;2023-05-14T06:49:55;22.70;99.90
18882;DHT22;9573;50.948;11.600;2023-05-14T06:52:23;27.00;99.50
18882;DHT22;9573;50.948;11.600;2023-05-14T06:54:51;28.30;92.80
18882;DHT22;9573;50.948;11.600;2023-05-14T06:57:18;28.40;89.10
18882;DHT22;9573;50.948;11.600;2023-05-14T06:59:45;27.40;87.90
18882;DHT22;9573;50.948;11.600;2023-05-14T07:02:13;26.40;88.30
18882;DHT22;9573;50.948;11.600;2023-05-14T07:04:41;25.90;88.50
18882;DHT22;9573;50.948;11.600;2023-05-14T07:07:09;25.70;89.60
18882;DHT22;9573;50.948;11.600;2023-05-14T07:09:40;26.40;87.50
18882;DHT22;9573;50.948;11.600;2023-05-14T07:12:08;28.80;82.40
18882;DHT22;9573;50.948;11.600;2023-05-14T07:14:35;30.80;74.60
18882;DHT22;9573;50.948;11.600;2023-05-14T07:17:02;31.00;71.30
18882;DHT22;9573;50.948;11.600;2023-05-14T07:19:30;30.70;70.70
18882;DHT22;9573;50.948;11.600;2023-05-14T07:21:58;31.70;69.60
18882;DHT22;9573;50.948;11.600;2023-05-14T07:24:25;34.40;63.70
18882;DHT22;9573;50.948;11.600;2023-05-14T07:26:52;36.10;57.80
18882;DHT22;9573;50.948;11.600;2023-05-14T07:29:21;37.40;55.40
18882;DHT22;9573;50.948;11.600;2023-05-14T07:31:49;38.50;52.10
18882;DHT22;9573;50.948;11.600;2023-05-14T07:34:17;38.70;50.30
18882;DHT22;9573;50.948;11.600;2023-05-14T07:36:45;39.10;49.40
18882;DHT22;9573;50.948;11.600;2023-05-14T07:39:13;39.30;48.30
18882;DHT22;9573;50.948;11.600;2023-05-14T07:41:40;39.80;47.90
18882;DHT22;9573;50.948;11.600;2023-05-14T07:44:07;39.90;47.50
18882;DHT22;9573;50.948;11.600;2023-05-14T07:46:35;37.70;47.90
18882;DHT22;9573;50.948;11.600;2023-05-14T07:49:03;34.50;51.00
18882;DHT22;9573;50.948;11.600;2023-05-14T07:51:34;31.70;54.60
18882;DHT22;9573;50.948;11.600;2023-05-14T07:54:01;31.30;55.40
18882;DHT22;9573;50.948;11.600;2023-05-14T07:56:30;31.90;55.20
18882;DHT22;9573;50.948;11.600;2023-05-14T07:58:57;30.70;56.00
18882;DHT22;9573;50.948;11.600;2023-05-14T08:01:24;28.90;58.80
18882;DHT22;9573;50.948;11.600;2023-05-14T08:03:52;28.50;60.50
18882;DHT22;9573;50.948;11.600;2023-05-14T08:06:19;31.50;56.70
18882;DHT22;9573;50.948;11.600;2023-05-14T08:08:47;34.30;53.70
18882;DHT22;9573;50.948;11.600;2023-05-14T08:11:15;36.30;50.80
18882;DHT22;9573;50.948;11.600;2023-05-14T08:13:47;37.60;48.70
18882;DHT22;9573;50.948;11.600;2023-05-14T08:16:14;38.40;47.30
18882;DHT22;9573;50.948;11.600;2023-05-14T08:18:43;38.70;45.60
18882;DHT22;9573;50.948;11.600;2023-05-14T08:21:10;38.10;46.10
18882;DHT22;9573;50.948;11.600;2023-05-14T08:23:37;38.10;44.30
18882;DHT22;9573;50.948;11.600;2023-05-14T08:26:04;38.60;43.40
18882;DHT22;9573;50.948;11.600;2023-05-14T08:28:32;38.10;44.00
18882;DHT22;9573;50.948;11.600;2023-05-14T08:31:00;37.60;43.80
18882;DHT22;9573;50.948;11.600;2023-05-14T08:33:27;38.20;44.50
18882;DHT22;9573;50.948;11.600;2023-05-14T08:35:55;38.10;43.90
18882;DHT22;9573;50.948;11.600;2023-05-14T08:38:24;38.80;43.40
18882;DHT22;9573;50.948;11.600;2023-05-14T08:40:55;39.10;42.90
18882;DHT22;9573;50.948;11.600;2023-05-14T08:43:26;39.50;42.70
18882;DHT22;9573;50.948;11.600;2023-05-14T08:45:57;39.70;42.10
18882;DHT22;9573;50.948;11.600;2023-05-14T08:48:30;39.60;41.60
18882;DHT22;9573;50.948;11.600;2023-05-14T08:50:58;39.40;42.80
18882;DHT22;9573;50.948;11.600;2023-05-14T08:53:26;39.10;41.50
18882;DHT22;9573;50.948;11.600;2023-05-14T08:55:53;38.70;42.20
18882;DHT22;9573;50.948;11.600;2023-05-14T08:58:21;39.20;42.50
18882;DHT22;9573;50.948;11.600;2023-05-14T09:00:48;39.50;41.80
18882;DHT22;9573;50.948;11.600;2023-05-14T09:03:17;38.50;42.40
18882;DHT22;9573;50.948;11.600;2023-05-14T09:05:44;38.60;42.20
18882;DHT22;9573;50.948;11.600;2023-05-14T09:08:12;39.20;42.20
18882;DHT22;9573;50.948;11.600;2023-05-14T09:10:39;39.00;41.70
18882;DHT22;9573;50.948;11.600;2023-05-14T09:13:08;37.80;42.30
18882;DHT22;9573;50.948;11.600;2023-05-14T09:15:36;37.80;43.20
18882;DHT22;9573;50.948;11.600;2023-05-14T09:18:06;38.50;42.50
18882;DHT22;9573;50.948;11.600;2023-05-14T09:20:34;39.00;41.70
18882;DHT22;9573;50.948;11.600;2023-05-14T09:23:02;40.00;41.60
18882;DHT22;9573;50.948;11.600;2023-05-14T09:25:30;38.20;42.10
18882;DHT22;9573;50.948;11.600;2023-05-14T09:27:58;35.40;45.10
18882;DHT22;9573;50.948;11.600;2023-05-14T09:30:25;33.10;48.10
18882;DHT22;9573;50.948;11.600;2023-05-14T09:32:53;31.90;49.60
18882;DHT22;9573;50.948;11.600;2023-05-14T09:35:22;30.80;51.20
18882;DHT22;9573;50.948;11.600;2023-05-14T09:37:53;29.50;52.80
18882;DHT22;9573;50.948;11.600;2023-05-14T09:40:21;28.40;54.80
18882;DHT22;9573;50.948;11.600;2023-05-14T09:42:49;27.60;55.70
18882;DHT22;9573;50.948;11.600;2023-05-14T09:45:16;27.00;56.80
18882;DHT22;9573;50.948;11.600;2023-05-14T09:47:43;26.10;58.30
18882;DHT22;9573;50.948;11.600;2023-05-14T09:50:11;25.50;59.90
18882;DHT22;9573;50.948;11.600;2023-05-14T09:52:38;24.90;61.60
18882;DHT22;9573;50.948;11.600;2023-05-14T09:55:08;24.30;62.70
18882;DHT22;9573;50.948;11.600;2023-05-14T09:57:35;23.90;63.70
18882;DHT22;9573;50.948;11.600;2023-05-14T10:00:03;23.60;64.80
18882;DHT22;9573;50.948;11.600;2023-05-14T10:02:35;23.40;65.70
18882;DHT22;9573;50.948;11.600;2023-05-14T10:05:06;23.00;67.10
18882;DHT22;9573;50.948;11.600;2023-05-14T10:07:37;22.80;67.90
18882;DHT22;9573;50.948;11.600;2023-05-14T10:10:11;23.00;68.10
18882;DHT22;9573;50.948;11.600;2023-05-14T10:12:39;24.30;66.00
18882;DHT22;9573;50.948;11.600;2023-05-14T10:15:14;26.20;61.70
18882;DHT22;9573;50.948;11.600;2023-05-14T10:17:47;27.40;58.70
18882;DHT22;9573;50.948;11.600;2023-05-14T10:20:15;26.50;60.60
18882;DHT22;9573;50.948;11.600;2023-05-14T10:22:43;25.30;61.80
18882;DHT22;9573;50.948;11.600;2023-05-14T10:25:12;24.40;64.00
18882;DHT22;9573;50.948;11.600;2023-05-14T10:27:40;23.80;66.00
18882;DHT22;9573;50.948;11.600;2023-05-14T10:30:10;23.90;67.50
18882;DHT22;9573;50.948;11.600;2023-05-14T10:32:39;25.50;64.60
18882;DHT22;9573;50.948;11.600;2023-05-14T10:35:15;25.80;63.40
18882;DHT22;9573;50.948;11.600;2023-05-14T10:37:45;25.90;62.60
18882;DHT22;9573;50.948;11.600;2023-05-14T10:40:13;26.10;63.00
18882;DHT22;9573;50.948;11.600;2023-05-14T10:42:42;26.60;61.80
18882;DHT22;9573;50.948;11.600;2023-05-14T10:45:11;28.00;59.10
18882;DHT22;9573;50.948;11.600;2023-05-14T10:47:43;29.00;57.00
18882;DHT22;9573;50.948;11.600;2023-05-14T10:50:12;29.00;57.40
18882;DHT22;9573;50.948;11.600;2023-05-14T10:52:41;28.50;57.60
18882;DHT22;9573;50.948;11.600;2023-05-14T10:55:13;27.20;58.40
18882;DHT22;9573;50.948;11.600;2023-05-14T10:57:42;26.20;60.10
18882;DHT22;9573;50.948;11.600;2023-05-14T11:00:12;25.50;61.80
18882;DHT22;9573;50.948;11.600;2023-05-14T11:02:41;25.10;62.70
18882;DHT22;9573;50.948;11.600;2023-05-14T11:05:10;24.40;64.00
18882;DHT22;9573;50.948;11.600;2023-05-14T11:07:39;23.60;65.40
18882;DHT22;9573;50.948;11.600;2023-05-14T11:10:10;23.30;67.30
18882;DHT22;9573;50.948;11.600;2023-05-14T11:12:40;23.10;68.10
18882;DHT22;9573;50.948;11.600;2023-05-14T11:15:09;23.00;68.90
18882;DHT22;9573;50.948;11.600;2023-05-14T11:17:38;22.80;68.80
18882;DHT22;9573;50.948;11.600;2023-05-14T11:20:07;22.40;69.40
18882;DHT22;9573;50.948;11.600;2023-05-14T11:22:39;22.10;70.80
18882;DHT22;9573;50.948;11.600;2023-05-14T11:25:13;21.90;71.70
18882;DHT22;9573;50.948;11.600;2023-05-14T11:27:44;21.80;72.20
18882;DHT22;9573;50.948;11.600;2023-05-14T11:30:13;21.70;73.10
18882;DHT22;9573;50.948;11.600;2023-05-14T11:32:43;21.50;74.80
18882;DHT22;9573;50.948;11.600;2023-05-14T11:35:11;21.40;75.50
18882;DHT22;9573;50.948;11.600;2023-05-14T11:37:38;21.40;76.20
18882;DHT22;9573;50.948;11.600;2023-05-14T11:40:07;21.50;76.30
18882;DHT22;9573;50.948;11.600;2023-05-14T11:42:35;21.50;76.60
18882;DHT22;9573;50.948;11.600;2023-05-14T11:45:05;21.60;75.90
18882;DHT22;9573;50.948;11.600;2023-05-14T11:47:33;21.90;75.40
18882;DHT22;9573;50.948;11.600;2023-05-14T11:50:00;22.10;74.90
18882;DHT22;9573;50.948;11.600;2023-05-14T11:52:28;22.30;73.30
18882;DHT22;9573;50.948;11.600;2023-05-14T11:54:55;22.30;73.20
18882;DHT22;9573;50.948;11.600;2023-05-14T11:57:22;22.30;73.80
18882;DHT22;9573;50.948;11.600;2023-05-14T11:59:54;22.10;73.70
18882;DHT22;9573;50.948;11.600;2023-05-14T12:02:26;22.00;74.60
18882;DHT22;9573;50.948;11.600;2023-05-14T12:04:54;21.90;75.00
18882;DHT22;9573;50.948;11.600;2023-05-14T12:07:21;21.80;75.50
18882;DHT22;9573;50.948;11.600;2023-05-14T12:09:48;21.80;75.20
18882;DHT22;9573;50.948;11.600;2023-05-14T12:12:18;21.80;75.40
18882;DHT22;9573;50.948;11.600;2023-05-14T12:14:46;22.00;76.20
18882;DHT22;9573;50.948;11.600;2023-05-14T12:17:15;22.10;73.80
18882;DHT22;9573;50.948;11.600;2023-05-14T12:19:47;22.00;74.10
18882;DHT22;9573;50.948;11.600;2023-05-14T12:22:16;22.10;75.20
18882;DHT22;9573;50.948;11.600;2023-05-14T12:24:52;22.20;74.90
18882;DHT22;9573;50.948;11.600;2023-05-14T12:27:21;22.20;75.30
18882;DHT22;9573;50.948;11.600;2023-05-14T12:29:50;22.40;75.00
18882;DHT22;9573;50.948;11.600;2023-05-14T12:32:24;22.50;74.00
18882;DHT22;9573;50.948;11.600;2023-05-14T12:34:53;23.00;72.80
18882;DHT22;9573;50.948;11.600;2023-05-14T12:37:20;23.30;73.00
18882;DHT22;9573;50.948;11.600;2023-05-14T12:39:47;23.60;70.70
18882;DHT22;9573;50.948;11.600;2023-05-14T12:42:15;23.40;70.60
18882;DHT22;9573;50.948;11.600;2023-05-14T12:44:42;23.60;70.20
18882;DHT22;9573;50.948;11.600;2023-05-14T12:47:09;24.30;68.40
18882;DHT22;9573;50.948;11.600;2023-05-14T12:49:36;25.00;67.20
18882;DHT22;9573;50.948;11.600;2023-05-14T12:52:05;25.40;66.60
18882;DHT22;9573;50.948;11.600;2023-05-14T12:54:32;25.90;64.30
18882;DHT22;9573;50.948;11.600;2023-05-14T12:56:59;26.30;63.80
18882;DHT22;9573;50.948;11.600;2023-05-14T12:59:26;26.10;64.50
18882;DHT22;9573;50.948;11.600;2023-05-14T13:01:53;25.70;65.10
18882;DHT22;9573;50.948;11.600;2023-05-14T13:04:20;25.20;65.30
18882;DHT22;9573;50.948;11.600;2023-05-14T13:06:47;24.80;67.20
18882;DHT22;9573;50.948;11.600;2023-05-14T13:09:16;24.10;68.70
18882;DHT22;9573;50.948;11.600;2023-05-14T13:11:43;23.80;70.10
18882;DHT22;9573;50.948;11.600;2023-05-14T13:14:10;23.50;70.70
18882;DHT22;9573;50.948;11.600;2023-05-14T13:16:37;23.40;70.80
18882;DHT22;9573;50.948;11.600;2023-05-14T13:19:04;23.30;70.40
18882;DHT22;9573;50.948;11.600;2023-05-14T13:21:32;23.20;70.30
18882;DHT22;9573;50.948;11.600;2023-05-14T13:23:59;23.00;70.10
18882;DHT22;9573;50.948;11.600;2023-05-14T13:26:27;22.80;70.30
18882;DHT22;9573;50.948;11.600;2023-05-14T13:28:54;22.70;69.40
18882;DHT22;9573;50.948;11.600;2023-05-14T13:31:21;22.70;69.60
18882;DHT22;9573;50.948;11.600;2023-05-14T13:33:48;22.70;68.90
18882;DHT22;9573;50.948;11.600;2023-05-14T13:36:16;22.40;69.00
18882;DHT22;9573;50.948;11.600;2023-05-14T13:38:43;22.30;71.40
18882;DHT22;9573;50.948;11.600;2023-05-14T13:41:11;22.50;71.90
18882;DHT22;9573;50.948;11.600;2023-05-14T13:43:39;22.50;71.80
18882;DHT22;9573;50.948;11.600;2023-05-14T13:46:06;22.20;71.60
18882;DHT22;9573;50.948;11.600;2023-05-14T13:48:33;22.60;71.80
18882;DHT22;9573;50.948;11.600;2023-05-14T13:51:02;22.60;72.00
18882;DHT22;9573;50.948;11.600;2023-05-14T13:53:29;22.60;72.70
18882;DHT22;9573;50.948;11.600;2023-05-14T13:55:56;22.70;72.70
18882;DHT22;9573;50.948;11.600;2023-05-14T13:58:26;22.60;73.10
18882;DHT22;9573;50.948;11.600;2023-05-14T14:00:54;22.60;72.80
18882;DHT22;9573;50.948;11.600;2023-05-14T14:03:22;22.50;73.00
18882;DHT22;9573;50.948;11.600;2023-05-14T14:05:49;22.40;71.40
18882;DHT22;9573;50.948;11.600;2023-05-14T14:08:16;22.50;72.00
18882;DHT22;9573;50.948;11.600;2023-05-14T14:10:44;22.30;72.30
18882;DHT22;9573;50.948;11.600;2023-05-14T14:13:12;22.30;72.70
18882;DHT22;9573;50.948;11.600;2023-05-14T14:15:39;22.30;73.00
18882;DHT22;9573;50.948;11.600;2023-05-14T14:18:08;22.20;74.20
18882;DHT22;9573;50.948;11.600;2023-05-14T14:20:35;22.10;74.00
18882;DHT22;9573;50.948;11.600;2023-05-14T14:23:02;22.00;74.80
18882;DHT22;9573;50.948;11.600;2023-05-14T14:25:29;22.00;74.50
18882;DHT22;9573;50.948;11.600;2023-05-14T14:27:56;21.90;75.40
18882;DHT22;9573;50.948;11.600;2023-05-14T14:30:24;22.10;74.40
18882;DHT22;9573;50.948;11.600;2023-05-14T14:32:51;22.20;74.40
18882;DHT22;9573;50.948;11.600;2023-05-14T14:35:19;22.30;74.50
18882;DHT22;9573;50.948;11.600;2023-05-14T14:37:46;22.40;74.90
18882;DHT22;9573;50.948;11.600;2023-05-14T14:40:18;22.50;75.60
18882;DHT22;9573;50.948;11.600;2023-05-14T14:42:48;22.50;75.10
18882;DHT22;9573;50.948;11.600;2023-05-14T14:45:15;22.50;75.10
18882;DHT22;9573;50.948;11.600;2023-05-14T14:47:43;22.50;76.00
18882;DHT22;9573;50.948;11.600;2023-05-14T14:50:11;22.50;76.10
18882;DHT22;9573;50.948;11.600;2023-05-14T14:52:41;22.60;76.10
18882;DHT22;9573;50.948;11.600;2023-05-14T14:55:09;22.80;75.70
18882;DHT22;9573;50.948;11.600;2023-05-14T14:57:36;23.00;75.20
18882;DHT22;9573;50.948;11.600;2023-05-14T15:00:04;23.40;73.80
18882;DHT22;9573;50.948;11.600;2023-05-14T15:02:32;23.40;73.00
18882;DHT22;9573;50.948;11.600;2023-05-14T15:04:59;23.30;73.20
18882;DHT22;9573;50.948;11.600;2023-05-14T15:07:26;23.30;73.10
18882;DHT22;9573;50.948;11.600;2023-05-14T15:09:58;23.20;72.70
18882;DHT22;9573;50.948;11.600;2023-05-14T15:12:25;22.90;72.90
18882;DHT22;9573;50.948;11.600;2023-05-14T15:14:52;22.60;74.10
18882;DHT22;9573;50.948;11.600;2023-05-14T15:17:19;22.10;75.80
18882;DHT22;9573;50.948;11.600;2023-05-14T15:19:47;21.90;75.70
18882;DHT22;9573;50.948;11.600;2023-05-14T15:22:14;21.70;76.70
18882;DHT22;9573;50.948;11.600;2023-05-14T15:24:41;21.40;77.10
18882;DHT22;9573;50.948;11.600;2023-05-14T15:27:09;21.30;77.20
18882;DHT22;9573;50.948;11.600;2023-05-14T15:29:36;21.20;77.50
18882;DHT22;9573;50.948;11.600;2023-05-14T15:32:04;21.10;77.80
18882;DHT22;9573;50.948;11.600;2023-05-14T15:34:32;21.00;78.10